createdAt,value
2018-05-26T00:02:01.629Z,99.90
2018-05-26T00:04:27.590Z,99.90
2018-05-26T00:06:53.545Z,99.90
2018-05-26T00:09:19.489Z,99.90
2018-05-26T00:11:45.465Z,99.90
2018-05-26T00:14:11.481Z,99.90
2018-05-26T00:16:37.499Z,99.90
2018-05-26T00:19:03.528Z,99.90
2018-05-26T00:21:29.508Z,99.90
2018-05-26T00:24:02.272Z,99.90
2018-05-26T00:26:28.245Z,99.90
2018-05-26T00:28:54.201Z,99.90
2018-05-26T00:31:20.194Z,99.90
2018-05-26T00:33:46.135Z,99.90
2018-05-26T00:36:12.100Z,99.90
2018-05-26T00:38:38.772Z,99.90
2018-05-26T00:41:04.949Z,99.90
2018-05-26T00:43:30.941Z,99.90
2018-05-26T00:45:57.091Z,99.90
2018-05-26T00:48:23.113Z,99.90
2018-05-26T00:50:49.088Z,99.90
2018-05-26T00:53:15.048Z,99.90
2018-05-26T00:55:41.003Z,99.90
2018-05-26T00:58:07.170Z,99.90
2018-05-26T01:00:34.130Z,99.90
2018-05-26T01:03:00.108Z,99.90
2018-05-26T01:05:26.216Z,99.90
2018-05-26T01:07:52.200Z,99.90
2018-05-26T01:10:18.168Z,99.90
2018-05-26T01:12:44.187Z,99.90
2018-05-26T01:15:10.200Z,99.90
2018-05-26T01:17:36.275Z,99.90
2018-05-26T01:20:02.231Z,99.90
2018-05-26T01:22:28.202Z,99.90
2018-05-26T01:24:54.222Z,99.90
2018-05-26T01:27:20.174Z,99.90
2018-05-26T01:29:46.141Z,99.90
2018-05-26T01:32:12.122Z,99.90
2018-05-26T01:34:38.186Z,99.90
2018-05-26T01:37:04.188Z,99.90
2018-05-26T01:39:30.182Z,99.90
2018-05-26T01:41:56.143Z,99.90
2018-05-26T01:44:22.115Z,99.90
2018-05-26T01:46:48.085Z,99.90
2018-05-26T01:49:14.103Z,99.90
2018-05-26T01:51:40.102Z,99.90
2018-05-26T01:54:06.263Z,99.90
2018-05-26T01:56:32.246Z,99.90
2018-05-26T01:58:58.246Z,99.90
2018-05-26T02:01:24.244Z,99.90
2018-05-26T02:03:50.203Z,99.90
2018-05-26T02:06:16.170Z,99.90
2018-05-26T02:08:42.172Z,99.90
2018-05-26T02:11:15.004Z,99.90
2018-05-26T02:13:41.009Z,99.90
2018-05-26T02:16:06.950Z,99.90
2018-05-26T02:18:32.886Z,99.90
2018-05-26T02:20:58.862Z,99.90
2018-05-26T02:23:24.863Z,99.90
2018-05-26T02:25:51.370Z,99.90
2018-05-26T02:28:17.345Z,99.90
2018-05-26T02:30:43.383Z,99.90
2018-05-26T02:33:09.351Z,99.90
2018-05-26T02:35:35.359Z,99.90
2018-05-26T02:38:01.336Z,99.90
2018-05-26T02:40:27.315Z,99.90
2018-05-26T02:42:53.308Z,99.90
2018-05-26T02:45:19.290Z,99.90
2018-05-26T02:47:45.265Z,99.90
2018-05-26T02:50:11.224Z,99.90
2018-05-26T02:52:37.206Z,99.90
2018-05-26T02:55:03.162Z,99.90
2018-05-26T02:57:29.122Z,99.90
2018-05-26T02:59:55.066Z,99.90
2018-05-26T03:02:21.029Z,99.90
2018-05-26T03:04:52.932Z,99.90
2018-05-26T03:07:24.959Z,99.90
2018-05-26T03:09:57.045Z,99.90
2018-05-26T03:12:29.061Z,99.90
2018-05-26T03:14:54.994Z,99.90
2018-05-26T03:20:27.739Z,99.90
2018-05-26T03:22:53.690Z,99.90
2018-05-26T03:25:19.650Z,99.90
2018-05-26T03:27:45.628Z,99.90
2018-05-26T03:30:11.572Z,99.90
2018-05-26T03:32:37.596Z,99.90
2018-05-26T03:35:03.601Z,99.90
2018-05-26T03:37:29.465Z,99.90
2018-05-26T03:39:55.410Z,99.90
2018-05-26T03:42:21.356Z,99.90
2018-05-26T03:44:47.379Z,99.90
2018-05-26T03:47:13.328Z,99.90
2018-05-26T03:49:39.338Z,99.90
2018-05-26T03:52:05.262Z,99.90
2018-05-26T03:54:43.577Z,99.90
2018-05-26T03:57:21.834Z,99.90
2018-05-26T04:02:49.790Z,99.90
2018-05-26T04:05:15.805Z,99.90
2018-05-26T04:07:41.746Z,99.90
2018-05-26T04:10:07.724Z,99.90
2018-05-26T04:12:33.672Z,99.90
2018-05-26T04:14:59.609Z,99.90
2018-05-26T04:17:25.570Z,99.90
2018-05-26T04:19:51.574Z,99.90
2018-05-26T04:22:17.505Z,99.90
2018-05-26T04:24:43.506Z,99.90
2018-05-26T04:27:09.490Z,99.90
2018-05-26T04:29:35.619Z,99.90
2018-05-26T04:32:01.592Z,99.90
2018-05-26T04:34:27.625Z,99.90
2018-05-26T04:36:53.651Z,99.90
2018-05-26T04:39:19.603Z,99.90
2018-05-26T04:41:45.552Z,99.90
2018-05-26T04:44:11.514Z,99.90
2018-05-26T04:46:37.468Z,99.90
2018-05-26T04:49:03.475Z,99.90
2018-05-26T04:51:29.449Z,99.90
2018-05-26T04:53:55.442Z,99.90
2018-05-26T04:56:21.397Z,99.90
2018-05-26T04:58:47.340Z,99.90
2018-05-26T05:01:13.320Z,99.90
2018-05-26T05:03:39.353Z,99.90
2018-05-26T05:06:05.313Z,99.90
2018-05-26T05:08:31.284Z,99.90
2018-05-26T05:10:57.323Z,99.90
2018-05-26T05:13:23.304Z,99.90
2018-05-26T05:15:49.298Z,99.90
2018-05-26T05:18:15.314Z,99.90
2018-05-26T05:20:41.289Z,99.90
2018-05-26T05:23:07.272Z,99.90
2018-05-26T05:25:33.261Z,99.90
2018-05-26T05:27:59.254Z,99.90
2018-05-26T05:30:25.220Z,99.90
2018-05-26T05:32:51.174Z,99.90
2018-05-26T05:35:17.134Z,99.90
2018-05-26T05:37:43.104Z,99.90
2018-05-26T05:40:09.069Z,99.90
2018-05-26T05:42:41.957Z,99.90
2018-05-26T05:45:07.929Z,99.90
2018-05-26T05:47:33.913Z,99.90
2018-05-26T05:49:59.931Z,99.90
2018-05-26T05:52:25.896Z,99.90
2018-05-26T05:54:52.030Z,99.90
2018-05-26T05:57:18.024Z,99.90
2018-05-26T05:59:44.099Z,99.90
2018-05-26T06:02:10.087Z,99.90
2018-05-26T06:04:36.041Z,99.90
2018-05-26T06:07:02.016Z,99.90
2018-05-26T06:09:27.991Z,99.90
2018-05-26T06:11:53.946Z,99.90
2018-05-26T06:14:19.885Z,99.90
2018-05-26T06:16:45.855Z,99.90
2018-05-26T06:19:11.804Z,99.90
2018-05-26T06:21:37.817Z,99.90
2018-05-26T06:24:03.830Z,99.90
2018-05-26T06:26:30.445Z,99.90
2018-05-26T06:28:56.403Z,99.90
2018-05-26T06:31:22.384Z,99.90
2018-05-26T06:33:48.404Z,99.90
2018-05-26T06:36:15.931Z,99.90
2018-05-26T06:38:42.391Z,99.90
2018-05-26T06:41:08.341Z,99.90
2018-05-26T06:43:34.477Z,99.90
2018-05-26T06:46:00.528Z,99.90
2018-05-26T06:48:26.650Z,99.90
2018-05-26T06:50:52.667Z,99.90
2018-05-26T06:53:18.847Z,99.90
2018-05-26T06:55:45.824Z,99.90
2018-05-26T06:58:12.765Z,99.90
2018-05-26T07:00:38.790Z,99.90
2018-05-26T07:03:05.727Z,99.90
2018-05-26T07:05:31.750Z,99.90
2018-05-26T07:07:57.827Z,99.90
2018-05-26T07:10:24.296Z,99.90
2018-05-26T07:12:50.328Z,99.90
2018-05-26T07:15:16.348Z,99.90
2018-05-26T07:17:43.780Z,99.90
2018-05-26T07:20:16.625Z,99.90
2018-05-26T07:22:42.629Z,99.90
2018-05-26T07:25:08.665Z,99.90
2018-05-26T07:27:35.243Z,99.90
2018-05-26T07:30:01.623Z,99.90
2018-05-26T07:32:27.606Z,99.90
2018-05-26T07:34:53.593Z,99.90
2018-05-26T07:37:20.495Z,99.90
2018-05-26T07:39:46.561Z,99.90
2018-05-26T07:42:12.627Z,99.90
2018-05-26T07:44:38.661Z,99.90
2018-05-26T07:47:04.639Z,99.90
2018-05-26T07:49:30.724Z,99.90
2018-05-26T07:51:56.786Z,99.90
2018-05-26T07:54:22.810Z,99.90
2018-05-26T07:56:50.722Z,99.90
2018-05-26T07:59:16.737Z,99.90
2018-05-26T08:01:42.968Z,99.90
2018-05-26T08:04:09.089Z,99.90
2018-05-26T08:06:35.062Z,99.90
2018-05-26T08:09:01.041Z,99.90
2018-05-26T08:11:27.074Z,99.90
2018-05-26T08:13:53.094Z,99.90
2018-05-26T08:16:19.140Z,99.90
2018-05-26T08:18:45.265Z,99.90
2018-05-26T08:21:11.345Z,99.90
2018-05-26T08:23:37.309Z,99.90
2018-05-26T08:26:03.273Z,99.90
2018-05-26T08:28:29.235Z,99.90
2018-05-26T08:30:55.244Z,99.90
2018-05-26T08:33:22.258Z,99.90
2018-05-26T08:35:48.297Z,99.90
2018-05-26T08:38:15.298Z,99.90
2018-05-26T08:40:41.681Z,99.90
2018-05-26T08:43:07.679Z,99.90
2018-05-26T08:45:33.710Z,99.90
2018-05-26T08:48:01.287Z,99.90
2018-05-26T08:50:27.284Z,99.90
2018-05-26T08:52:54.222Z,99.90
2018-05-26T08:55:20.293Z,99.90
2018-05-26T09:14:31.310Z,99.90
2018-05-26T09:16:57.314Z,99.90
2018-05-26T09:19:25.017Z,99.90
2018-05-26T09:21:51.078Z,99.90
2018-05-26T09:24:19.877Z,99.90
2018-05-26T09:26:46.970Z,99.90
2018-05-26T09:29:14.028Z,99.90
2018-05-26T09:31:40.299Z,99.90
2018-05-26T09:34:06.309Z,99.90
2018-05-26T09:36:33.577Z,99.90
2018-05-26T09:39:01.172Z,99.90
2018-05-26T09:41:27.245Z,99.90
2018-05-26T09:43:53.452Z,99.90
2018-05-26T09:46:20.058Z,99.90
2018-05-26T09:48:46.317Z,99.90
2018-05-26T09:51:12.331Z,99.90
2018-05-26T09:53:38.625Z,99.90
2018-05-26T09:56:04.699Z,99.50
2018-05-26T09:58:33.187Z,99.10
2018-05-26T10:01:00.185Z,98.50
2018-05-26T10:03:26.201Z,98.40
2018-05-26T10:05:52.890Z,98.00
2018-05-26T10:08:19.575Z,97.80
2018-05-26T10:10:45.645Z,97.60
2018-05-26T10:13:11.691Z,96.60
2018-05-26T10:15:37.669Z,96.10
2018-05-26T10:18:04.407Z,95.90
2018-05-26T10:20:30.459Z,94.30
2018-05-26T10:22:57.092Z,94.50
2018-05-26T10:25:25.929Z,94.50
2018-05-26T10:27:52.064Z,93.80
2018-05-26T10:30:19.748Z,93.10
2018-05-26T10:32:45.915Z,92.50
2018-05-26T10:35:12.057Z,92.80
2018-05-26T10:37:38.367Z,92.30
2018-05-26T10:40:04.545Z,91.60
2018-05-26T10:59:15.385Z,83.90
2018-05-26T11:01:42.431Z,86.60
2018-05-26T11:04:09.415Z,86.10
2018-05-26T11:06:46.559Z,85.70
2018-05-26T11:09:12.575Z,85.20
2018-05-26T11:11:38.559Z,82.10
2018-05-26T11:14:04.851Z,77.30
2018-05-26T11:16:30.920Z,77.60
2018-05-26T11:18:56.964Z,81.70
2018-05-26T11:21:22.952Z,82.90
2018-05-26T11:23:49.030Z,81.00
2018-05-26T11:26:14.997Z,79.80
2018-05-26T11:28:40.958Z,79.10
2018-05-26T11:31:07.178Z,76.90
2018-05-26T11:33:33.410Z,75.00
2018-05-26T11:35:59.537Z,75.20
2018-05-26T11:38:26.103Z,75.90
2018-05-26T11:40:52.201Z,75.60
2018-05-26T11:43:18.292Z,72.40
2018-05-26T11:45:45.289Z,73.90
2018-05-26T11:48:11.511Z,73.30
2018-05-26T11:50:38.778Z,71.60
2018-05-26T11:53:04.933Z,68.60
2018-05-26T11:55:30.990Z,69.20
2018-05-26T11:57:57.029Z,69.10
2018-05-26T12:00:23.013Z,64.90
2018-05-26T12:02:49.182Z,64.30
2018-05-26T12:05:15.218Z,63.80
2018-05-26T12:07:41.205Z,62.60
2018-05-26T12:10:07.157Z,61.70
2018-05-26T12:12:34.169Z,61.90
2018-05-26T12:15:00.078Z,62.20
2018-05-26T12:17:26.114Z,62.50
2018-05-26T12:19:54.077Z,63.10
2018-05-26T12:22:20.131Z,64.20
2018-05-26T12:24:46.164Z,63.80
2018-05-26T12:27:12.342Z,62.90
2018-05-26T12:29:38.404Z,62.60
2018-05-26T12:32:04.396Z,61.70
2018-05-26T12:34:30.634Z,60.80
2018-05-26T12:36:56.652Z,60.40
2018-05-26T12:56:07.314Z,55.70
2018-05-26T12:58:34.326Z,57.30
2018-05-26T13:01:00.389Z,57.90
2018-05-26T13:03:26.999Z,57.90
2018-05-26T13:05:52.974Z,57.30
2018-05-26T13:08:19.065Z,57.10
2018-05-26T13:10:45.123Z,57.80
2018-05-26T13:13:11.042Z,57.50
2018-05-26T13:15:37.033Z,58.20
2018-05-26T13:18:03.053Z,57.60
2018-05-26T13:20:30.336Z,56.10
2018-05-26T13:22:56.368Z,54.30
2018-05-26T13:25:22.357Z,53.90
2018-05-26T13:27:48.341Z,53.80
2018-05-26T13:30:14.356Z,54.20
2018-05-26T13:32:40.364Z,53.90
2018-05-26T13:35:06.432Z,53.80
2018-05-26T13:37:32.615Z,52.60
2018-05-26T13:39:58.601Z,52.90
2018-05-26T13:42:24.594Z,51.50
2018-05-26T13:44:50.587Z,51.80
2018-05-26T13:47:16.630Z,52.10
2018-05-26T13:49:42.592Z,52.50
2018-05-26T13:52:08.717Z,52.90
2018-05-26T13:54:35.138Z,52.80
2018-05-26T13:57:02.933Z,53.30
2018-05-26T13:59:28.975Z,53.60
2018-05-26T14:01:55.257Z,54.30
2018-05-26T14:04:21.568Z,55.20
2018-05-26T14:06:48.588Z,55.30
2018-05-26T14:09:15.744Z,51.60
2018-05-26T14:11:43.758Z,51.60
2018-05-26T14:14:10.838Z,51.60
2018-05-26T14:16:37.414Z,51.70
2018-05-26T14:19:04.058Z,50.80
2018-05-26T14:21:30.187Z,53.40
2018-05-26T14:23:56.345Z,53.40
2018-05-26T14:26:22.457Z,52.60
2018-05-26T14:28:49.632Z,52.00
2018-05-26T14:31:15.771Z,52.30
2018-05-26T14:33:42.501Z,53.70
2018-05-26T14:36:09.290Z,54.40
2018-05-26T14:38:35.438Z,54.00
2018-05-26T14:41:01.523Z,52.60
2018-05-26T14:43:28.696Z,52.60
2018-05-26T14:45:54.833Z,52.10
2018-05-26T14:48:20.892Z,52.00
2018-05-26T14:50:47.271Z,52.40
2018-05-26T14:53:13.367Z,51.90
2018-05-26T14:55:39.582Z,52.00
2018-05-26T14:58:05.750Z,51.00
2018-05-26T15:00:31.736Z,50.50
2018-05-26T15:02:57.753Z,50.00
2018-05-26T15:05:24.746Z,50.00
2018-05-26T15:07:50.800Z,49.90
2018-05-26T15:10:16.827Z,50.20
2018-05-26T15:12:42.943Z,50.20
2018-05-26T15:15:10.510Z,50.40
2018-05-26T15:17:36.588Z,50.40
2018-05-26T15:20:03.322Z,48.60
2018-05-26T15:22:29.491Z,48.50
2018-05-26T15:24:55.703Z,48.30
2018-05-26T15:27:22.931Z,47.40
2018-05-26T15:29:48.980Z,47.30
2018-05-26T15:32:15.056Z,47.40
2018-05-26T15:34:41.094Z,47.20
2018-05-26T15:37:07.812Z,46.80
2018-05-26T15:39:33.879Z,46.90
2018-05-26T15:41:59.900Z,46.80
2018-05-26T15:44:26.057Z,46.80
2018-05-26T15:46:52.191Z,47.10
2018-05-26T15:49:18.269Z,47.00
2018-05-26T15:51:45.077Z,46.50
2018-05-26T15:54:11.211Z,46.50
2018-05-26T15:56:37.193Z,46.00
2018-05-26T15:59:03.400Z,46.70
2018-05-26T16:01:30.297Z,46.40
2018-05-26T16:03:57.134Z,45.70
2018-05-26T16:06:23.365Z,45.70
2018-05-26T16:08:49.461Z,45.70
2018-05-26T16:11:16.436Z,46.50
2018-05-26T16:13:42.471Z,46.40
2018-05-26T16:16:08.532Z,46.00
2018-05-26T16:18:34.587Z,46.60
2018-05-26T16:21:00.610Z,46.10
2018-05-26T16:23:26.688Z,45.80
2018-05-26T16:25:53.111Z,46.60
2018-05-26T16:28:19.171Z,47.20
2018-05-26T16:30:45.388Z,47.00
2018-05-26T16:33:11.378Z,46.70
2018-05-26T16:35:37.465Z,47.10
2018-05-26T16:38:03.595Z,47.30
2018-05-26T16:40:29.669Z,46.70
2018-05-26T16:42:55.789Z,47.10
2018-05-26T16:45:21.982Z,47.60
2018-05-26T16:47:48.005Z,47.50
2018-05-26T16:50:15.050Z,47.70
2018-05-26T16:52:41.889Z,48.60
2018-05-26T16:55:08.694Z,49.40
2018-05-26T16:57:34.711Z,49.40
2018-05-26T17:00:01.412Z,49.00
2018-05-26T17:02:28.208Z,48.80
2018-05-26T17:04:55.906Z,48.50
2018-05-26T17:07:21.990Z,48.90
2018-05-26T17:09:49.021Z,48.40
2018-05-26T17:12:15.049Z,48.70
2018-05-26T17:14:41.394Z,48.40
2018-05-26T17:17:07.417Z,48.70
2018-05-26T17:19:33.484Z,49.20
2018-05-26T17:21:59.679Z,49.20
2018-05-26T17:24:25.887Z,49.60
2018-05-26T17:26:52.229Z,49.80
2018-05-26T17:29:18.455Z,49.70
2018-05-26T17:31:44.656Z,49.80
2018-05-26T17:34:11.115Z,49.90
2018-05-26T17:36:38.117Z,49.30
2018-05-26T17:39:04.261Z,49.20
2018-05-26T17:41:30.574Z,49.60
2018-05-26T17:43:56.859Z,49.50
2018-05-26T17:46:22.922Z,49.60
2018-05-26T17:48:49.790Z,49.40
2018-05-26T17:51:17.779Z,49.30
2018-05-26T17:53:44.042Z,49.60
2018-05-26T17:56:10.993Z,49.40
2018-05-26T17:58:37.012Z,49.30
2018-05-26T18:01:03.158Z,49.30
2018-05-26T18:03:29.307Z,49.30
2018-05-26T18:05:56.079Z,48.50
2018-05-26T18:08:22.196Z,48.50
2018-05-26T18:10:48.427Z,48.30
2018-05-26T18:13:14.559Z,48.30
2018-05-26T18:15:41.561Z,49.40
2018-05-26T18:18:07.879Z,49.20
2018-05-26T18:20:34.055Z,48.40
2018-05-26T18:23:00.288Z,48.70
2018-05-26T18:25:26.353Z,48.70
2018-05-26T18:27:53.902Z,48.90
2018-05-26T18:30:20.184Z,48.90
2018-05-26T18:32:46.315Z,49.00
2018-05-26T18:35:12.389Z,49.00
2018-05-26T18:37:38.460Z,48.90
2018-05-26T18:40:05.277Z,48.90
2018-05-26T18:42:31.339Z,48.80
2018-05-26T18:44:57.507Z,48.70
2018-05-26T18:47:23.671Z,48.60
2018-05-26T18:49:51.941Z,48.80
2018-05-26T18:52:18.961Z,49.30
2018-05-26T18:54:45.112Z,49.30
2018-05-26T18:57:11.214Z,49.70
2018-05-26T18:59:37.388Z,50.40
2018-05-26T19:02:04.276Z,52.30
2018-05-26T19:04:30.604Z,52.30
2018-05-26T19:06:57.352Z,54.10
2018-05-26T19:09:24.132Z,54.40
2018-05-26T19:11:50.155Z,54.30
2018-05-26T19:14:16.179Z,54.80
2018-05-26T19:16:42.182Z,55.20
2018-05-26T19:19:08.947Z,56.10
2018-05-26T19:21:35.013Z,56.00
2018-05-26T19:24:01.149Z,56.60
2018-05-26T19:26:27.199Z,57.00
2018-05-26T19:28:53.250Z,57.50
2018-05-26T19:31:20.193Z,58.60
2018-05-26T19:33:47.032Z,59.10
2018-05-26T19:36:13.943Z,60.30
2018-05-26T19:38:40.051Z,59.50
2018-05-26T19:41:06.051Z,59.60
2018-05-26T19:43:32.828Z,60.00
2018-05-26T19:45:59.324Z,60.00
2018-05-26T19:48:25.384Z,60.40
2018-05-26T19:50:53.107Z,61.20
2018-05-26T19:53:19.290Z,61.10
2018-05-26T19:55:46.290Z,61.70
2018-05-26T19:58:12.578Z,61.60
2018-05-26T20:00:38.794Z,62.10
2018-05-26T20:03:05.846Z,62.70
2018-05-26T20:05:32.691Z,63.00
2018-05-26T20:07:59.727Z,63.40
2018-05-26T20:10:26.871Z,64.10
2018-05-26T20:12:53.836Z,63.90
2018-05-26T20:15:20.038Z,64.00
2018-05-26T20:17:46.550Z,64.70
2018-05-26T20:20:12.689Z,64.80
2018-05-26T20:22:39.008Z,65.40
2018-05-26T20:25:05.996Z,66.10
2018-05-26T20:27:33.340Z,66.70
2018-05-26T20:30:00.654Z,67.60
2018-05-26T20:32:28.243Z,67.90
2018-05-26T20:34:55.161Z,68.80
2018-05-26T20:37:22.600Z,68.70
2018-05-26T20:39:49.293Z,69.00
2018-05-26T20:42:16.508Z,68.60
2018-05-26T20:44:43.494Z,68.80
2018-05-26T20:47:09.638Z,70.00
2018-05-26T20:49:37.612Z,70.90
2018-05-26T20:52:10.473Z,70.80
2018-05-26T20:54:36.682Z,71.80
2018-05-26T20:57:03.747Z,72.00
2018-05-26T20:59:31.214Z,72.40
2018-05-26T21:02:01.706Z,76.20
2018-05-26T21:04:27.773Z,76.10
2018-05-26T21:06:54.204Z,76.50
2018-05-26T21:09:21.246Z,79.70
2018-05-26T21:11:52.055Z,79.50
2018-05-26T21:14:19.210Z,81.00
2018-05-26T21:16:47.125Z,83.10
2018-05-26T21:19:14.098Z,83.10
2018-05-26T21:21:42.628Z,83.50
2018-05-26T21:24:08.662Z,84.40
2018-05-26T21:26:34.822Z,84.40
2018-05-26T21:29:01.054Z,84.80
2018-05-26T21:31:27.464Z,84.80
2018-05-26T21:33:54.855Z,85.20
2018-05-26T21:36:20.952Z,85.00
2018-05-26T21:38:47.048Z,85.60
2018-05-26T21:41:13.845Z,85.00
2018-05-26T21:43:40.403Z,84.80
2018-05-26T21:46:06.506Z,85.80
2018-05-26T21:48:32.893Z,86.50
2018-05-26T21:50:59.012Z,87.00
2018-05-26T21:53:25.206Z,88.00
2018-05-26T21:55:51.537Z,87.40
2018-05-26T21:58:17.752Z,87.70
2018-05-26T22:00:44.005Z,88.40
2018-05-26T22:03:10.497Z,89.10
2018-05-26T22:05:36.658Z,89.40
2018-05-26T22:08:03.519Z,90.20
2018-05-26T22:10:29.934Z,90.70
2018-05-26T22:12:58.617Z,91.90
2018-05-26T22:15:25.053Z,91.90
2018-05-26T22:17:51.636Z,92.40
2018-05-26T22:20:18.139Z,92.70
2018-05-26T22:22:45.110Z,93.80
2018-05-26T22:25:13.146Z,94.10
2018-05-26T22:27:39.319Z,94.10
2018-05-26T22:30:06.173Z,95.30
2018-05-26T22:32:32.287Z,95.30
2018-05-26T22:35:00.137Z,96.00
2018-05-26T22:37:26.302Z,95.90
2018-05-26T22:39:52.417Z,96.80
2018-05-26T22:42:18.701Z,97.20
2018-05-26T22:44:44.786Z,97.80
2018-05-26T22:47:11.653Z,98.80
2018-05-26T22:49:37.722Z,98.70
2018-05-26T22:52:07.257Z,99.40
2018-05-26T22:54:33.552Z,99.90
2018-05-26T22:56:59.748Z,99.90
2018-05-26T22:59:26.537Z,99.90
2018-05-26T23:01:52.735Z,99.90
2018-05-26T23:04:19.585Z,99.90
2018-05-26T23:06:45.989Z,99.90
2018-05-26T23:09:12.068Z,99.90
2018-05-26T23:11:38.133Z,99.90
2018-05-26T23:14:04.263Z,99.90
2018-05-26T23:16:31.117Z,99.90
2018-05-26T23:18:57.095Z,99.90
2018-05-26T23:21:23.120Z,99.90
2018-05-26T23:23:49.131Z,99.90
2018-05-26T23:26:15.156Z,99.90
2018-05-26T23:28:41.193Z,99.90
2018-05-26T23:31:07.194Z,99.90
2018-05-26T23:33:33.264Z,99.90
2018-05-26T23:35:59.269Z,99.90
2018-05-26T23:38:25.327Z,99.90
2018-05-26T23:40:51.999Z,99.90
2018-05-26T23:43:18.237Z,99.90
2018-05-26T23:45:44.607Z,99.90
2018-05-26T23:48:10.746Z,99.90
2018-05-26T23:50:36.717Z,99.90
2018-05-26T23:53:02.741Z,99.90
2018-05-26T23:55:28.833Z,99.90
2018-05-26T23:57:54.965Z,99.90
